Time;durP1;ratioP1;P1;durP2;ratioP2;P2;SDS_P1;SDS_P2;PMS_P1;PMS_P2;Temp;Humidity;BMP_temperature;BMP_pressure;BME280_temperature;BME280_humidity;BME280_pressure;Samples;Min_cycle;Max_cycle;Signal;HPM_P1;HPM_P2
2023/01/11 00:02:38;;;;;;;;;;;17.40;42.00;;;;;;8364419;28;19952;-44
2023/01/11 00:06:38;;;;;;;;;;;17.40;42.10;;;;;;8364257;28;19955;-44
2023/01/11 00:10:39;;;;;;;;;;;17.40;42.00;;;;;;8363908;28;20293;-43
2023/01/11 00:14:39;;;;;;;;;;;17.40;42.00;;;;;;8364066;28;20370;-44
2023/01/11 00:18:40;;;;;;;;;;;17.40;42.00;;;;;;8364257;28;20377;-44
2023/01/11 00:22:40;;;;;;;;;;;17.40;42.00;;;;;;8363574;28;20282;-44
2023/01/11 00:26:41;;;;;;;;;;;17.40;42.10;;;;;;8363785;28;20005;-44
2023/01/11 00:30:41;;;;;;;;;;;17.40;42.10;;;;;;8363713;28;19913;-44
2023/01/11 00:34:41;;;;;;;;;;;17.40;42.10;;;;;;8363255;28;20004;-44
2023/01/11 00:38:52;;;;;;;;;;;17.40;42.10;;;;;;8363593;28;19924;-44
2023/01/11 00:51:32;;;;;;;;;;;17.40;42.10;;;;;;8363460;28;19971;-45
2023/01/11 00:55:33;;;;;;;;;;;17.40;42.20;;;;;;8363323;28;19929;-43
2023/01/11 00:59:33;;;;;;;;;;;17.40;42.20;;;;;;8362938;28;19913;-44
2023/01/11 01:03:34;;;;;;;;;;;17.40;42.30;;;;;;8363401;28;19917;-43
2023/01/11 01:07:35;;;;;;;;;;;17.40;42.10;;;;;;8362909;28;19924;-44
2023/01/11 01:11:35;;;;;;;;;;;17.40;42.10;;;;;;8361157;28;19923;-43
2023/01/11 01:15:36;;;;;;;;;;;17.40;42.10;;;;;;8363116;28;19925;-45
2023/01/11 01:19:37;;;;;;;;;;;17.40;42.10;;;;;;8362676;28;19912;-43
2023/01/11 01:23:37;;;;;;;;;;;17.40;42.00;;;;;;8362951;28;19916;-44
2023/01/11 01:27:38;;;;;;;;;;;17.50;42.10;;;;;;8362749;28;19970;-44
2023/01/11 01:31:39;;;;;;;;;;;17.40;42.00;;;;;;8362297;28;19917;-43
2023/01/11 01:35:39;;;;;;;;;;;17.50;42.10;;;;;;8362826;28;19924;-44
2023/01/11 01:39:39;;;;;;;;;;;17.50;42.00;;;;;;8362704;28;19996;-45
2023/01/11 01:43:49;;;;;;;;;;;17.50;42.00;;;;;;8362008;28;19924;-43
2023/01/11 01:47:52;;;;;;;;;;;17.50;42.00;;;;;;8362484;28;19923;-44
2023/01/11 01:51:55;;;;;;;;;;;17.50;42.00;;;;;;8362361;28;20388;-44
2023/01/11 01:55:59;;;;;;;;;;;17.50;42.00;;;;;;8361648;28;19975;-43
2023/01/11 02:00:01;;;;;;;;;;;17.50;42.10;;;;;;8362593;28;19944;-44
2023/01/11 02:04:05;;;;;;;;;;;17.50;42.10;;;;;;8364484;28;19916;-44
2023/01/11 02:08:10;;;;;;;;;;;17.50;42.20;;;;;;8367615;28;19917;-43
2023/01/11 02:12:11;;;;;;;;;;;17.40;42.20;;;;;;8367936;28;19916;-45
2023/01/11 02:16:11;;;;;;;;;;;17.40;42.20;;;;;;8367956;28;19989;-44
2023/01/11 02:20:30;;;;;;;;;;;17.40;42.20;;;;;;8367534;28;20312;-44
2023/01/11 02:24:41;;;;;;;;;;;17.40;42.20;;;;;;8367846;28;19917;-44
2023/01/11 02:28:59;;;;;;;;;;;17.40;42.20;;;;;;8367013;28;19917;-43
2023/01/11 02:33:17;;;;;;;;;;;17.40;42.20;;;;;;8367532;28;19916;-44
2023/01/11 02:37:33;;;;;;;;;;;17.40;42.20;;;;;;8367317;28;20019;-45
2023/01/11 02:46:04;;;;;;;;;;;17.40;42.20;;;;;;8371461;28;19970;-44
2023/01/11 02:50:08;;;;;;;;;;;17.40;42.30;;;;;;8366762;28;19966;-44
2023/01/11 02:54:09;;;;;;;;;;;17.40;42.30;;;;;;8366490;28;19940;-44
2023/01/11 02:58:10;;;;;;;;;;;17.30;42.30;;;;;;8366613;28;19925;-44
2023/01/11 03:02:11;;;;;;;;;;;17.30;42.30;;;;;;8365936;28;19956;-44
2023/01/11 03:06:13;;;;;;;;;;;17.30;42.20;;;;;;8365853;28;20369;-43
2023/01/11 03:10:17;;;;;;;;;;;17.30;42.30;;;;;;8366463;28;20328;-44
2023/01/11 03:14:36;;;;;;;;;;;17.40;42.30;;;;;;8366296;28;19924;-44
2023/01/11 03:18:49;;;;;;;;;;;17.30;42.30;;;;;;8366100;28;19963;-46
2023/01/11 03:22:49;;;;;;;;;;;17.30;42.30;;;;;;8365472;28;19917;-44
2023/01/11 03:26:53;;;;;;;;;;;17.30;42.20;;;;;;8366011;28;20370;-44
2023/01/11 03:31:00;;;;;;;;;;;17.40;42.30;;;;;;8365841;28;19916;-44
2023/01/11 03:35:03;;;;;;;;;;;17.30;42.20;;;;;;8365421;28;19928;-44
2023/01/11 03:39:18;;;;;;;;;;;17.30;42.20;;;;;;8365545;28;19960;-44
2023/01/11 03:43:20;;;;;;;;;;;17.30;42.20;;;;;;8365127;28;19916;-44
2023/01/11 03:47:22;;;;;;;;;;;17.30;42.20;;;;;;8364547;28;19917;-44
2023/01/11 03:51:28;;;;;;;;;;;17.30;42.20;;;;;;8365215;28;19924;-44
2023/01/11 03:55:30;;;;;;;;;;;17.40;42.20;;;;;;8364827;28;19931;-44
2023/01/11 03:59:31;;;;;;;;;;;17.40;42.20;;;;;;8364105;28;19978;-44
2023/01/11 04:03:31;;;;;;;;;;;17.40;42.10;;;;;;8364462;28;19921;-45
2023/01/11 04:07:32;;;;;;;;;;;17.40;42.10;;;;;;8364413;28;20016;-45
2023/01/11 04:11:32;;;;;;;;;;;17.40;42.10;;;;;;8363801;28;19927;-44
2023/01/11 04:15:34;;;;;;;;;;;17.40;42.10;;;;;;8364525;28;19925;-43
2023/01/11 04:19:35;;;;;;;;;;;17.40;42.10;;;;;;8363902;28;19924;-43
2023/01/11 04:23:35;;;;;;;;;;;17.40;42.10;;;;;;8363634;28;19917;-43
2023/01/11 04:27:36;;;;;;;;;;;17.40;42.00;;;;;;8363597;28;20384;-43
2023/01/11 04:31:36;;;;;;;;;;;17.50;42.10;;;;;;8363395;28;19913;-43
2023/01/11 04:35:37;;;;;;;;;;;17.50;42.10;;;;;;8364114;28;19921;-43
2023/01/11 04:39:37;;;;;;;;;;;17.40;42.00;;;;;;8363670;28;19917;-44
2023/01/11 04:43:37;;;;;;;;;;;17.40;42.00;;;;;;8363044;28;19924;-42
2023/01/11 04:47:38;;;;;;;;;;;17.40;42.00;;;;;;8363162;28;19921;-43
2023/01/11 04:51:38;;;;;;;;;;;17.50;42.10;;;;;;8363286;28;20007;-44
2023/01/11 04:55:39;;;;;;;;;;;17.40;42.00;;;;;;8362872;28;19979;-42
2023/01/11 04:59:39;;;;;;;;;;;17.40;42.00;;;;;;8363056;28;19939;-43
2023/01/11 05:03:40;;;;;;;;;;;17.50;42.10;;;;;;8362998;28;20301;-43
2023/01/11 05:07:40;;;;;;;;;;;17.40;42.10;;;;;;8361609;28;20432;-43
2023/01/11 05:11:41;;;;;;;;;;;17.40;42.20;;;;;;8363259;28;20258;-43
2023/01/11 05:15:41;;;;;;;;;;;17.40;42.10;;;;;;8363423;28;19944;-43
2023/01/11 05:19:42;;;;;;;;;;;17.40;42.20;;;;;;8362669;28;20047;-43
2023/01/11 05:23:42;;;;;;;;;;;17.40;42.10;;;;;;8363552;28;19921;-44
2023/01/11 05:27:43;;;;;;;;;;;17.40;42.20;;;;;;8363316;28;19921;-43
2023/01/11 05:31:43;;;;;;;;;;;17.40;42.20;;;;;;8362248;28;19913;-43
2023/01/11 05:35:45;;;;;;;;;;;17.40;42.20;;;;;;8363078;28;20339;-43
2023/01/11 05:39:45;;;;;;;;;;;17.40;42.20;;;;;;8367284;28;20020;-44
2023/01/11 05:48:05;;;;;;;;;;;17.40;42.30;;;;;;8373547;28;20385;-43
2023/01/11 05:52:06;;;;;;;;;;;17.40;42.20;;;;;;8368688;28;19999;-43
2023/01/11 05:56:06;;;;;;;;;;;17.40;42.20;;;;;;8368126;28;19928;-43
2023/01/11 06:00:07;;;;;;;;;;;17.40;42.20;;;;;;8368313;28;19916;-43
2023/01/11 06:04:08;;;;;;;;;;;17.40;42.30;;;;;;8368617;28;20365;-43
2023/01/11 06:08:08;;;;;;;;;;;17.30;42.20;;;;;;8367727;28;19921;-44
2023/01/11 06:12:09;;;;;;;;;;;17.30;42.20;;;;;;8368342;28;19952;-43
2023/01/11 06:16:14;;;;;;;;;;;17.40;42.30;;;;;;8368185;28;19964;-43
2023/01/11 06:20:15;;;;;;;;;;;17.30;42.20;;;;;;8367397;28;19923;-43
2023/01/11 06:24:15;;;;;;;;;;;17.30;42.20;;;;;;8367677;28;20395;-43
2023/01/11 06:28:16;;;;;;;;;;;17.30;42.30;;;;;;8367550;28;20015;-43
2023/01/11 06:32:16;;;;;;;;;;;17.30;42.20;;;;;;8367190;28;19913;-43
2023/01/11 06:36:17;;;;;;;;;;;17.30;42.30;;;;;;8367446;28;19974;-43
2023/01/11 06:40:17;;;;;;;;;;;17.30;42.20;;;;;;8367157;28;19917;-43
2023/01/11 06:44:18;;;;;;;;;;;17.30;42.30;;;;;;8367003;28;19917;-43
2023/01/11 06:48:18;;;;;;;;;;;17.30;42.30;;;;;;8366539;28;19923;-43
2023/01/11 06:52:19;;;;;;;;;;;17.30;42.20;;;;;;8366971;28;20297;-44
2023/01/11 06:56:19;;;;;;;;;;;17.30;42.30;;;;;;8366278;28;19925;-43
2023/01/11 07:00:20;;;;;;;;;;;17.30;42.30;;;;;;8366773;28;19920;-45
2023/01/11 07:04:21;;;;;;;;;;;17.30;42.30;;;;;;8366392;28;19912;-44
2023/01/11 07:08:22;;;;;;;;;;;17.30;42.30;;;;;;8365882;28;20335;-43
2023/01/11 07:12:23;;;;;;;;;;;17.30;42.30;;;;;;8366593;28;19913;-43
2023/01/11 07:16:23;;;;;;;;;;;17.30;42.40;;;;;;8366255;28;19928;-43
2023/01/11 07:20:24;;;;;;;;;;;17.30;42.30;;;;;;8365766;28;19972;-43
2023/01/11 07:24:25;;;;;;;;;;;17.30;42.30;;;;;;8365544;28;19917;-44
2023/01/11 07:28:27;;;;;;;;;;;17.30;42.20;;;;;;8365527;28;19913;-44
2023/01/11 07:32:27;;;;;;;;;;;17.30;42.30;;;;;;8364916;28;20335;-44
2023/01/11 07:36:28;;;;;;;;;;;17.30;42.30;;;;;;8365267;28;19925;-44
2023/01/11 07:40:29;;;;;;;;;;;17.30;42.30;;;;;;8365254;28;19983;-43
2023/01/11 07:44:29;;;;;;;;;;;17.30;42.40;;;;;;8364137;28;19978;-44
2023/01/11 07:48:30;;;;;;;;;;;17.30;42.40;;;;;;8364205;28;19920;-44
2023/01/11 07:52:30;;;;;;;;;;;17.30;42.30;;;;;;8364845;28;19924;-43
2023/01/11 07:56:31;;;;;;;;;;;17.30;42.30;;;;;;8364049;28;19929;-44
2023/01/11 08:00:31;;;;;;;;;;;17.30;42.30;;;;;;8363956;28;19916;-44
2023/01/11 08:04:32;;;;;;;;;;;17.30;42.40;;;;;;8364592;28;20336;-45
2023/01/11 08:08:32;;;;;;;;;;;17.30;42.30;;;;;;8362518;28;19974;-44
2023/01/11 08:16:51;;;;;;;;;;;17.30;42.40;;;;;;8363857;28;19932;-44
2023/01/11 08:20:52;;;;;;;;;;;17.30;42.40;;;;;;8364208;28;19952;-44
2023/01/11 08:24:52;;;;;;;;;;;17.30;42.30;;;;;;8364193;28;19940;-44
2023/01/11 08:28:53;;;;;;;;;;;17.30;42.30;;;;;;8363099;28;19927;-44
2023/01/11 08:32:55;;;;;;;;;;;17.30;42.30;;;;;;8363914;28;19939;-44
2023/01/11 08:36:56;;;;;;;;;;;17.30;42.30;;;;;;8364184;28;19971;-45
2023/01/11 08:40:56;;;;;;;;;;;17.30;42.30;;;;;;8363508;28;19917;-44
2023/01/11 08:44:57;;;;;;;;;;;17.30;42.30;;;;;;8363833;28;19921;-44
2023/01/11 08:48:57;;;;;;;;;;;17.30;42.20;;;;;;8363302;28;19967;-44
2023/01/11 08:52:58;;;;;;;;;;;17.30;42.20;;;;;;8363045;28;19982;-44
2023/01/11 08:56:58;;;;;;;;;;;17.30;42.20;;;;;;8363328;28;20385;-45
2023/01/11 09:01:01;;;;;;;;;;;17.40;42.30;;;;;;8363062;28;19962;-44
2023/01/11 09:05:02;;;;;;;;;;;17.40;42.30;;;;;;8362707;28;19917;-45
2023/01/11 09:09:02;;;;;;;;;;;17.40;42.30;;;;;;8363325;28;19919;-44
2023/01/11 09:13:03;;;;;;;;;;;17.40;42.30;;;;;;8366586;28;19927;-44
2023/01/11 09:21:42;;;;;;;;;;;17.40;42.30;;;;;;8370241;28;20280;-44
2023/01/11 09:25:43;;;;;;;;;;;17.40;42.30;;;;;;8369229;28;19955;-44
2023/01/11 09:29:44;;;;;;;;;;;17.40;42.30;;;;;;8368812;28;19921;-45
2023/01/11 09:33:45;;;;;;;;;;;17.40;42.20;;;;;;8369210;28;19959;-43
2023/01/11 09:37:50;;;;;;;;;;;17.40;42.30;;;;;;8368889;28;19978;-44
2023/01/11 09:42:06;;;;;;;;;;;17.40;42.30;;;;;;8369266;28;19924;-43
2023/01/11 09:46:07;;;;;;;;;;;17.40;42.30;;;;;;8368868;28;19921;-44
2023/01/11 09:50:11;;;;;;;;;;;17.40;42.30;;;;;;8368510;28;19921;-44
2023/01/11 09:54:17;;;;;;;;;;;17.40;42.30;;;;;;8368891;28;19912;-43
2023/01/11 09:58:45;;;;;;;;;;;17.40;42.20;;;;;;8368855;28;19920;-44
2023/01/11 10:02:58;;;;;;;;;;;17.40;42.30;;;;;;8352885;28;20285;-45
2023/01/11 10:07:21;;;;;;;;;;;17.40;42.20;;;;;;8368189;28;19921;-44
2023/01/11 10:11:40;;;;;;;;;;;17.40;42.20;;;;;;8347137;28;19956;-43
2023/01/11 10:15:48;;;;;;;;;;;17.40;42.30;;;;;;8368022;28;20389;-45
2023/01/11 10:19:55;;;;;;;;;;;17.40;42.30;;;;;;8367472;28;20021;-44
2023/01/11 10:24:16;;;;;;;;;;;17.40;42.30;;;;;;8367075;28;19917;-45
2023/01/11 10:28:18;;;;;;;;;;;17.40;42.20;;;;;;8360074;28;19919;-44
2023/01/11 10:32:33;;;;;;;;;;;17.40;42.30;;;;;;8366775;28;20454;-43
2023/01/11 10:37:15;;;;;;;;;;;17.40;42.30;;;;;;8367131;28;20374;-44
2023/01/11 10:41:32;;;;;;;;;;;17.40;42.30;;;;;;8366488;28;20300;-44
2023/01/11 10:45:40;;;;;;;;;;;17.40;42.20;;;;;;8367078;28;19979;-44
2023/01/11 10:49:54;;;;;;;;;;;17.40;42.30;;;;;;8366382;28;19994;-43
2023/01/11 10:53:59;;;;;;;;;;;17.40;42.30;;;;;;8367022;28;19913;-44
2023/01/11 10:58:16;;;;;;;;;;;17.40;42.20;;;;;;8366581;28;19986;-43
2023/01/11 11:02:39;;;;;;;;;;;17.40;42.30;;;;;;8365962;28;19977;-45
2023/01/11 11:06:53;;;;;;;;;;;17.50;42.30;;;;;;8356701;28;19917;-44
2023/01/11 11:10:56;;;;;;;;;;;17.40;42.30;;;;;;8365821;28;19921;-44
2023/01/11 11:15:06;;;;;;;;;;;17.40;42.30;;;;;;8365942;28;19917;-44
2023/01/11 11:19:08;;;;;;;;;;;17.40;42.30;;;;;;8366045;28;20374;-44
2023/01/11 11:23:12;;;;;;;;;;;17.50;42.40;;;;;;8365547;28;19913;-44
2023/01/11 11:27:18;;;;;;;;;;;17.40;42.30;;;;;;8365646;28;19996;-44
2023/01/11 11:31:18;;;;;;;;;;;17.40;42.30;;;;;;8365404;28;20366;-45
2023/01/11 11:35:28;;;;;;;;;;;17.40;42.30;;;;;;8363850;28;19979;-44
2023/01/11 11:39:29;;;;;;;;;;;17.50;42.40;;;;;;8365498;28;19979;-44
2023/01/11 11:43:31;;;;;;;;;;;17.50;42.30;;;;;;8365335;28;20374;-45
2023/01/11 11:47:31;;;;;;;;;;;17.40;42.30;;;;;;8364542;28;19916;-44
2023/01/11 11:51:31;;;;;;;;;;;17.50;42.30;;;;;;8364704;28;19962;-44
2023/01/11 11:55:33;;;;;;;;;;;17.50;42.30;;;;;;8364614;28;19990;-44
2023/01/11 11:59:33;;;;;;;;;;;17.40;42.30;;;;;;8364039;28;19920;-44
2023/01/11 12:03:34;;;;;;;;;;;17.40;42.30;;;;;;8365092;28;20469;-44
2023/01/11 12:07:35;;;;;;;;;;;17.40;42.30;;;;;;8364616;28;19916;-44
2023/01/11 12:11:37;;;;;;;;;;;17.40;42.30;;;;;;8363669;28;19917;-45
2023/01/11 12:15:38;;;;;;;;;;;17.40;42.30;;;;;;8364176;28;19924;-44
2023/01/11 12:19:40;;;;;;;;;;;17.40;42.40;;;;;;8363504;28;19913;-43
2023/01/11 12:23:40;;;;;;;;;;;17.50;42.40;;;;;;8364210;28;19919;-44
2023/01/11 12:28:02;;;;;;;;;;;17.40;42.30;;;;;;8363654;28;19917;-44
2023/01/11 12:32:12;;;;;;;;;;;17.40;42.40;;;;;;8363248;28;19959;-44
2023/01/11 12:36:13;;;;;;;;;;;17.40;42.50;;;;;;8363566;28;19952;-44
2023/01/11 12:40:24;;;;;;;;;;;17.50;42.50;;;;;;8363566;28;19943;-44
2023/01/11 12:44:32;;;;;;;;;;;17.50;42.50;;;;;;8363825;28;19913;-44
2023/01/11 12:48:49;;;;;;;;;;;17.40;42.50;;;;;;8362996;28;19917;-45
2023/01/11 12:52:50;;;;;;;;;;;17.40;42.50;;;;;;8362889;28;20005;-43
2023/01/11 12:57:09;;;;;;;;;;;17.40;42.60;;;;;;8363236;28;20381;-44
2023/01/11 13:01:30;;;;;;;;;;;17.40;42.50;;;;;;8362393;28;21264;-43
2023/01/11 13:05:48;;;;;;;;;;;17.40;42.50;;;;;;8362484;28;19924;-44
2023/01/11 13:10:08;;;;;;;;;;;17.40;42.50;;;;;;8363001;28;19990;-45
2023/01/11 13:14:17;;;;;;;;;;;17.40;42.50;;;;;;8362560;28;20422;-44
2023/01/11 13:18:41;;;;;;;;;;;17.50;42.60;;;;;;8362800;28;19932;-44
2023/01/11 13:22:45;;;;;;;;;;;17.50;42.60;;;;;;8354114;28;19971;-45
2023/01/11 13:26:46;;;;;;;;;;;17.50;42.60;;;;;;8362669;28;19920;-45
2023/01/11 13:30:47;;;;;;;;;;;17.50;42.60;;;;;;8362659;28;19917;-44
2023/01/11 13:34:53;;;;;;;;;;;17.50;42.60;;;;;;8362533;28;20357;-45
2023/01/11 13:39:01;;;;;;;;;;;17.50;42.60;;;;;;8362415;28;20396;-45
2023/01/11 13:43:20;;;;;;;;;;;17.50;42.60;;;;;;8362587;28;20346;-44
2023/01/11 13:47:33;;;;;;;;;;;17.50;42.60;;;;;;8361729;28;19924;-45
2023/01/11 13:51:45;;;;;;;;;;;17.50;42.60;;;;;;8362217;28;19945;-42
2023/01/11 13:55:55;;;;;;;;;;;17.50;42.60;;;;;;8361841;28;19924;-46
2023/01/11 14:00:00;;;;;;;;;;;17.50;43.10;;;;;;8365514;28;19924;-46
2023/01/11 14:04:10;;;;;;;;;;;17.50;42.60;;;;;;8368220;28;19916;-45
2023/01/11 14:08:13;;;;;;;;;;;17.50;42.60;;;;;;8367612;28;19959;-45
2023/01/11 14:12:36;;;;;;;;;;;17.50;42.60;;;;;;8367353;28;19921;-45
2023/01/11 14:16:52;;;;;;;;;;;17.50;42.60;;;;;;8367550;28;20436;-43
2023/01/11 14:21:09;;;;;;;;;;;17.50;42.60;;;;;;8367627;28;19916;-46
2023/01/11 14:25:18;;;;;;;;;;;17.50;42.60;;;;;;8368002;28;19976;-48
2023/01/11 14:29:28;;;;;;;;;;;17.50;42.60;;;;;;8367325;28;19924;-43
2023/01/11 14:33:31;;;;;;;;;;;17.50;42.60;;;;;;8367373;28;19991;-44
2023/01/11 14:37:31;;;;;;;;;;;17.50;42.60;;;;;;8366964;28;19936;-45
2023/01/11 14:41:47;;;;;;;;;;;17.50;42.70;;;;;;8366659;28;19952;-44
2023/01/11 14:45:56;;;;;;;;;;;17.50;42.70;;;;;;8367069;28;19921;-44
2023/01/11 14:49:57;;;;;;;;;;;17.50;42.70;;;;;;8366589;28;19913;-44
2023/01/11 14:54:08;;;;;;;;;;;17.50;42.70;;;;;;8366785;28;19977;-44
2023/01/11 14:58:09;;;;;;;;;;;17.50;42.70;;;;;;8366505;28;20012;-45
2023/01/11 15:02:09;;;;;;;;;;;17.50;42.70;;;;;;8365840;28;19917;-46
2023/01/11 15:06:12;;;;;;;;;;;17.50;42.70;;;;;;8366600;28;19917;-44
2023/01/11 15:10:28;;;;;;;;;;;17.50;42.70;;;;;;8366441;28;20273;-45
2023/01/11 15:14:31;;;;;;;;;;;17.50;42.70;;;;;;8365502;28;20000;-44
2023/01/11 15:18:40;;;;;;;;;;;17.50;42.80;;;;;;8366109;28;19931;-45
2023/01/11 15:22:40;;;;;;;;;;;17.50;42.80;;;;;;8365695;28;20281;-44
2023/01/11 15:26:48;;;;;;;;;;;17.50;42.80;;;;;;8365852;28;19923;-45
2023/01/11 15:30:51;;;;;;;;;;;17.50;42.80;;;;;;8365667;28;19913;-45
2023/01/11 15:34:52;;;;;;;;;;;17.50;42.80;;;;;;8365075;28;19913;-44
2023/01/11 15:38:58;;;;;;;;;;;17.50;42.80;;;;;;8365450;28;19990;-44
2023/01/11 15:43:02;;;;;;;;;;;17.50;42.80;;;;;;8365238;28;19917;-47
2023/01/11 15:47:05;;;;;;;;;;;17.50;42.80;;;;;;8364541;28;20390;-45
2023/01/11 15:51:15;;;;;;;;;;;17.50;42.80;;;;;;8365111;28;20387;-45
2023/01/11 15:55:47;;;;;;;;;;;17.50;42.80;;;;;;8364864;28;19920;-45
2023/01/11 16:00:07;;;;;;;;;;;17.50;42.90;;;;;;8363856;28;19928;-45
2023/01/11 16:04:22;;;;;;;;;;;17.50;42.90;;;;;;8364377;28;19974;-44
2023/01/11 16:08:28;;;;;;;;;;;17.50;42.90;;;;;;8364049;28;19944;-46
2023/01/11 16:12:40;;;;;;;;;;;17.50;42.90;;;;;;8364270;28;20385;-44
2023/01/11 16:16:42;;;;;;;;;;;17.50;42.90;;;;;;8363549;28;19925;-45
2023/01/11 16:20:44;;;;;;;;;;;17.50;42.90;;;;;;8363894;28;19988;-46
2023/01/11 16:24:46;;;;;;;;;;;17.50;42.90;;;;;;8363586;28;19944;-45
2023/01/11 16:28:48;;;;;;;;;;;17.50;43.00;;;;;;8363267;28;19917;-46
2023/01/11 16:32:49;;;;;;;;;;;17.50;43.00;;;;;;8363579;28;19920;-45
2023/01/11 16:36:49;;;;;;;;;;;17.50;43.00;;;;;;8363719;28;19928;-45
2023/01/11 16:40:51;;;;;;;;;;;17.50;43.00;;;;;;8363387;28;19913;-46
2023/01/11 16:44:58;;;;;;;;;;;17.50;43.00;;;;;;8363277;28;19917;-44
2023/01/11 16:49:08;;;;;;;;;;;17.50;43.00;;;;;;8363409;28;20381;-45
2023/01/11 16:53:13;;;;;;;;;;;17.50;43.00;;;;;;8362719;28;19917;-45
2023/01/11 16:57:13;;;;;;;;;;;17.50;43.00;;;;;;8363431;28;20449;-45
2023/01/11 17:01:14;;;;;;;;;;;17.50;43.10;;;;;;8356119;28;19925;-45
2023/01/11 17:05:18;;;;;;;;;;;17.50;43.10;;;;;;8357973;28;19924;-46
2023/01/11 17:09:20;;;;;;;;;;;17.50;43.10;;;;;;8348031;28;20333;-46
2023/01/11 17:17:50;;;;;;;;;;;17.50;43.10;;;;;;8351488;28;20014;-45
2023/01/11 17:21:52;;;;;;;;;;;17.50;43.10;;;;;;8356083;28;20378;-42
2023/01/11 17:25:54;;;;;;;;;;;17.50;43.30;;;;;;8336210;28;20058;-45
2023/01/11 17:29:56;;;;;;;;;;;17.60;43.60;;;;;;8355642;28;19929;-45
2023/01/11 17:34:07;;;;;;;;;;;17.60;43.80;;;;;;8356178;28;19924;-45
2023/01/11 17:38:13;;;;;;;;;;;17.60;43.90;;;;;;8355503;28;20004;-44
2023/01/11 17:46:33;;;;;;;;;;;17.70;43.80;;;;;;8363606;28;19976;-45
2023/01/11 17:50:38;;;;;;;;;;;17.70;43.80;;;;;;8357876;28;19924;-44
2023/01/11 17:54:38;;;;;;;;;;;17.70;43.80;;;;;;8368169;28;19920;-45
2023/01/11 17:58:39;;;;;;;;;;;17.70;43.80;;;;;;8355143;28;19925;-44
2023/01/11 18:02:39;;;;;;;;;;;17.80;43.90;;;;;;8361823;28;19925;-45
2023/01/11 18:06:41;;;;;;;;;;;17.80;43.90;;;;;;8365005;28;20070;-44
2023/01/11 18:10:47;;;;;;;;;;;17.80;44.00;;;;;;8360144;28;19991;-44
2023/01/11 18:14:58;;;;;;;;;;;17.80;43.90;;;;;;8365215;28;19925;-43
2023/01/11 18:18:58;;;;;;;;;;;17.90;43.90;;;;;;8364403;28;19924;-43
2023/01/11 18:23:02;;;;;;;;;;;17.90;43.90;;;;;;8365835;28;19970;-43
2023/01/11 18:27:11;;;;;;;;;;;17.90;44.00;;;;;;8349288;28;19918;-43
2023/01/11 18:31:12;;;;;;;;;;;17.90;44.00;;;;;;8364595;28;20330;-43
2023/01/11 18:35:16;;;;;;;;;;;17.90;44.00;;;;;;8353312;28;19925;-43
2023/01/11 18:39:16;;;;;;;;;;;18.00;44.10;;;;;;8360326;28;19974;-43
2023/01/11 18:43:19;;;;;;;;;;;18.00;44.00;;;;;;8352223;28;20439;-42
2023/01/11 18:47:22;;;;;;;;;;;18.00;44.00;;;;;;8360424;28;19921;-42
2023/01/11 18:51:26;;;;;;;;;;;18.00;43.90;;;;;;8365327;28;19921;-43
2023/01/11 18:55:27;;;;;;;;;;;18.00;43.90;;;;;;8359504;28;19933;-45
2023/01/11 18:59:27;;;;;;;;;;;18.10;43.90;;;;;;8350872;28;19935;-42
2023/01/11 19:03:27;;;;;;;;;;;18.10;44.00;;;;;;8364064;28;19935;-43
2023/01/11 19:07:28;;;;;;;;;;;18.10;43.90;;;;;;8365086;28;20003;-42
2023/01/11 19:11:29;;;;;;;;;;;18.10;43.90;;;;;;8354615;28;19932;-43
2023/01/11 19:15:32;;;;;;;;;;;18.10;44.00;;;;;;8344366;28;19948;-45
2023/01/11 19:19:33;;;;;;;;;;;18.10;44.00;;;;;;8356509;28;19917;-44
2023/01/11 19:23:33;;;;;;;;;;;18.20;44.10;;;;;;8347951;28;19963;-45
2023/01/11 19:27:34;;;;;;;;;;;18.20;44.10;;;;;;8343294;28;20389;-43
2023/01/11 19:31:35;;;;;;;;;;;18.20;44.10;;;;;;8357146;28;19927;-45
2023/01/11 19:35:38;;;;;;;;;;;18.20;44.10;;;;;;8361130;28;19921;-44
2023/01/11 19:39:39;;;;;;;;;;;18.20;44.10;;;;;;8364660;28;19917;-43
2023/01/11 19:43:43;;;;;;;;;;;18.30;44.10;;;;;;8351884;28;19956;-42
2023/01/11 19:47:45;;;;;;;;;;;18.20;44.10;;;;;;8352716;28;19917;-44
2023/01/11 19:51:46;;;;;;;;;;;18.20;44.10;;;;;;8350525;28;20320;-44
2023/01/11 19:55:46;;;;;;;;;;;18.20;44.10;;;;;;8343789;28;19966;-44
2023/01/11 19:59:47;;;;;;;;;;;18.30;44.00;;;;;;8358449;28;19917;-43
2023/01/11 20:03:48;;;;;;;;;;;18.30;44.00;;;;;;8361418;28;19949;-44
2023/01/11 20:07:49;;;;;;;;;;;18.40;43.90;;;;;;8342309;28;20003;-43
2023/01/11 20:11:49;;;;;;;;;;;18.40;43.90;;;;;;8349362;28;19917;-45
2023/01/11 20:15:51;;;;;;;;;;;18.40;43.80;;;;;;8355319;28;19924;-43
2023/01/11 20:19:53;;;;;;;;;;;18.40;43.90;;;;;;8348213;28;19979;-44
2023/01/11 20:23:56;;;;;;;;;;;18.50;43.90;;;;;;8354304;28;19982;-43
2023/01/11 20:27:56;;;;;;;;;;;18.40;43.90;;;;;;8363888;28;19920;-46
2023/01/11 20:31:57;;;;;;;;;;;18.40;43.90;;;;;;8363583;28;20018;-45
2023/01/11 20:35:57;;;;;;;;;;;18.40;43.90;;;;;;8363897;28;20401;-44
2023/01/11 20:39:58;;;;;;;;;;;18.40;43.80;;;;;;8363635;28;19917;-45
2023/01/11 20:43:58;;;;;;;;;;;18.30;43.70;;;;;;8363035;28;20312;-45
2023/01/11 20:47:59;;;;;;;;;;;18.30;43.80;;;;;;8363606;28;19948;-45
2023/01/11 20:51:59;;;;;;;;;;;18.30;43.70;;;;;;8362554;28;19924;-45
2023/01/11 20:56:03;;;;;;;;;;;18.20;43.60;;;;;;8362093;28;19932;-45
2023/01/11 21:00:04;;;;;;;;;;;18.20;43.60;;;;;;8363142;28;19917;-44
2023/01/11 21:04:06;;;;;;;;;;;18.20;43.60;;;;;;8363199;28;20310;-44
2023/01/11 21:08:06;;;;;;;;;;;18.20;43.60;;;;;;8362441;28;20366;-44
2023/01/11 21:12:07;;;;;;;;;;;18.20;43.60;;;;;;8363124;28;19921;-46
2023/01/11 21:16:10;;;;;;;;;;;18.20;43.60;;;;;;8363153;28;19994;-45
2023/01/11 21:20:11;;;;;;;;;;;18.20;43.60;;;;;;8362414;28;19916;-44
2023/01/11 21:24:12;;;;;;;;;;;18.20;43.60;;;;;;8362625;28;19920;-45
2023/01/11 21:28:13;;;;;;;;;;;18.20;43.60;;;;;;8362762;28;19932;-45
2023/01/11 21:32:13;;;;;;;;;;;18.10;43.50;;;;;;8362970;28;19920;-45
2023/01/11 21:36:15;;;;;;;;;;;18.10;43.50;;;;;;8362532;28;19929;-45
2023/01/11 21:40:16;;;;;;;;;;;18.10;43.50;;;;;;8362541;28;20003;-44
2023/01/11 21:44:17;;;;;;;;;;;18.10;43.50;;;;;;8361748;28;19916;-44
2023/01/11 21:48:18;;;;;;;;;;;18.10;43.50;;;;;;8362618;28;20018;-44
2023/01/11 21:52:18;;;;;;;;;;;18.10;43.50;;;;;;8362598;28;19992;-44
2023/01/11 21:56:18;;;;;;;;;;;18.10;43.50;;;;;;8361692;28;20019;-45
2023/01/11 22:00:19;;;;;;;;;;;18.00;43.40;;;;;;8362632;28;19916;-44
2023/01/11 22:04:20;;;;;;;;;;;18.00;43.40;;;;;;8362396;28;19928;-46
2023/01/11 22:08:20;;;;;;;;;;;18.00;43.40;;;;;;8361913;28;19936;-44
2023/01/11 22:12:21;;;;;;;;;;;18.00;43.40;;;;;;8362294;28;20293;-44
2023/01/11 22:16:21;;;;;;;;;;;18.00;43.40;;;;;;8362351;28;19947;-44
2023/01/11 22:20:22;;;;;;;;;;;18.00;43.40;;;;;;8363675;28;19917;-45
2023/01/11 22:24:22;;;;;;;;;;;18.00;43.40;;;;;;8368253;28;19917;-45
2023/01/11 22:28:23;;;;;;;;;;;18.00;43.40;;;;;;8368012;28;19913;-45
2023/01/11 22:32:23;;;;;;;;;;;17.90;43.30;;;;;;8366910;28;19971;-45
2023/01/11 22:36:24;;;;;;;;;;;18.00;43.40;;;;;;8367237;28;20009;-44
2023/01/11 22:40:25;;;;;;;;;;;17.90;43.30;;;;;;8367588;28;19927;-44
2023/01/11 22:44:25;;;;;;;;;;;17.90;43.30;;;;;;8366849;28;19916;-45
2023/01/11 22:48:26;;;;;;;;;;;17.90;43.40;;;;;;8367340;28;19999;-45
2023/01/11 22:52:26;;;;;;;;;;;17.90;43.30;;;;;;8366902;28;19917;-45
2023/01/11 22:56:29;;;;;;;;;;;17.90;43.40;;;;;;8366591;28;19925;-45
2023/01/11 23:00:29;;;;;;;;;;;17.90;43.40;;;;;;8365305;28;20275;-45
2023/01/11 23:04:32;;;;;;;;;;;17.90;43.40;;;;;;8366578;28;19917;-44
2023/01/11 23:08:36;;;;;;;;;;;17.90;43.40;;;;;;8365134;28;20362;-45
2023/01/11 23:17:09;;;;;;;;;;;17.90;43.30;;;;;;8367689;28;20339;-45
2023/01/11 23:21:09;;;;;;;;;;;17.90;43.30;;;;;;8366087;28;19917;-44
2023/01/11 23:25:10;;;;;;;;;;;17.90;43.30;;;;;;8366157;28;20298;-45
2023/01/11 23:29:10;;;;;;;;;;;17.90;43.30;;;;;;8365309;28;19917;-45
2023/01/11 23:33:11;;;;;;;;;;;17.90;43.30;;;;;;8366106;28;19917;-44
2023/01/11 23:37:11;;;;;;;;;;;17.90;43.30;;;;;;8365765;28;19925;-44
2023/01/11 23:45:35;;;;;;;;;;;17.80;43.20;;;;;;8365616;28;19975;-44
2023/01/11 23:49:35;;;;;;;;;;;17.80;43.30;;;;;;8365083;28;19927;-44
2023/01/11 23:53:36;;;;;;;;;;;17.80;43.30;;;;;;8364654;28;19913;-44
2023/01/11 23:58:07;;;;;;;;;;;17.80;43.30;;;;;;8364669;28;19999;-44
